sensor_id;sensor_type;location;lat;lon;timestamp;P1;durP1;ratioP1;P2;durP2;ratioP2
33593;SDS011;19920;52.242;20.940;2023-03-14T00:02:18;12.32;;;5.68;;
33593;SDS011;19920;52.242;20.940;2023-03-14T00:04:44;10.52;;;5.30;;
33593;SDS011;19920;52.242;20.940;2023-03-14T00:07:10;10.23;;;5.88;;
33593;SDS011;19920;52.242;20.940;2023-03-14T00:09:36;11.52;;;5.75;;
33593;SDS011;19920;52.242;20.940;2023-03-14T00:12:02;10.50;;;5.38;;
33593;SDS011;19920;52.242;20.940;2023-03-14T00:14:28;11.73;;;5.80;;
33593;SDS011;19920;52.242;20.940;2023-03-14T00:16:54;10.10;;;5.75;;
33593;SDS011;19920;52.242;20.940;2023-03-14T00:19:20;12.52;;;5.93;;
33593;SDS011;19920;52.242;20.940;2023-03-14T00:21:46;12.63;;;5.28;;
33593;SDS011;19920;52.242;20.940;2023-03-14T00:24:12;10.90;;;5.57;;
33593;SDS011;19920;52.242;20.940;2023-03-14T00:26:37;13.18;;;5.75;;
33593;SDS011;19920;52.242;20.940;2023-03-14T00:29:03;10.60;;;5.72;;
33593;SDS011;19920;52.242;20.940;2023-03-14T00:31:28;12.27;;;5.65;;
33593;SDS011;19920;52.242;20.940;2023-03-14T00:33:54;12.63;;;6.05;;
33593;SDS011;19920;52.242;20.940;2023-03-14T00:36:21;13.07;;;5.93;;
33593;SDS011;19920;52.242;20.940;2023-03-14T00:38:48;15.05;;;6.60;;
33593;SDS011;19920;52.242;20.940;2023-03-14T00:41:16;9.52;;;5.88;;
33593;SDS011;19920;52.242;20.940;2023-03-14T00:43:44;10.90;;;6.13;;
33593;SDS011;19920;52.242;20.940;2023-03-14T00:46:09;10.60;;;6.40;;
33593;SDS011;19920;52.242;20.940;2023-03-14T00:48:36;13.00;;;6.78;;
33593;SDS011;19920;52.242;20.940;2023-03-14T00:51:02;11.18;;;5.97;;
33593;SDS011;19920;52.242;20.940;2023-03-14T00:53:29;12.23;;;6.60;;
33593;SDS011;19920;52.242;20.940;2023-03-14T00:55:55;13.25;;;6.65;;
33593;SDS011;19920;52.242;20.940;2023-03-14T00:58:20;12.15;;;6.57;;
33593;SDS011;19920;52.242;20.940;2023-03-14T01:00:46;13.07;;;6.22;;
33593;SDS011;19920;52.242;20.940;2023-03-14T01:03:12;10.13;;;6.10;;
33593;SDS011;19920;52.242;20.940;2023-03-14T01:05:39;12.95;;;5.85;;
33593;SDS011;19920;52.242;20.940;2023-03-14T01:08:05;9.93;;;5.72;;
33593;SDS011;19920;52.242;20.940;2023-03-14T01:10:32;8.75;;;5.65;;
33593;SDS011;19920;52.242;20.940;2023-03-14T01:12:58;11.90;;;6.38;;
33593;SDS011;19920;52.242;20.940;2023-03-14T01:15:23;11.82;;;6.05;;
33593;SDS011;19920;52.242;20.940;2023-03-14T01:17:49;12.52;;;6.00;;
33593;SDS011;19920;52.242;20.940;2023-03-14T01:20:15;10.82;;;6.10;;
33593;SDS011;19920;52.242;20.940;2023-03-14T01:22:42;12.10;;;5.70;;
33593;SDS011;19920;52.242;20.940;2023-03-14T01:25:10;12.05;;;6.43;;
33593;SDS011;19920;52.242;20.940;2023-03-14T01:27:39;12.15;;;6.10;;
33593;SDS011;19920;52.242;20.940;2023-03-14T01:30:05;10.30;;;6.15;;
33593;SDS011;19920;52.242;20.940;2023-03-14T01:32:32;10.77;;;5.90;;
33593;SDS011;19920;52.242;20.940;2023-03-14T01:34:59;11.55;;;6.38;;
33593;SDS011;19920;52.242;20.940;2023-03-14T01:37:24;10.98;;;6.35;;
33593;SDS011;19920;52.242;20.940;2023-03-14T01:39:50;12.57;;;6.18;;
33593;SDS011;19920;52.242;20.940;2023-03-14T01:42:15;12.63;;;5.97;;
33593;SDS011;19920;52.242;20.940;2023-03-14T01:47:51;11.60;;;6.10;;
33593;SDS011;19920;52.242;20.940;2023-03-14T01:50:17;12.52;;;5.72;;
33593;SDS011;19920;52.242;20.940;2023-03-14T01:52:44;12.52;;;6.13;;
33593;SDS011;19920;52.242;20.940;2023-03-14T01:55:14;12.55;;;6.40;;
33593;SDS011;19920;52.242;20.940;2023-03-14T01:57:44;11.43;;;5.90;;
33593;SDS011;19920;52.242;20.940;2023-03-14T02:00:15;11.10;;;5.88;;
33593;SDS011;19920;52.242;20.940;2023-03-14T02:02:47;10.05;;;6.10;;
33593;SDS011;19920;52.242;20.940;2023-03-14T02:05:16;12.40;;;6.70;;
33593;SDS011;19920;52.242;20.940;2023-03-14T02:07:54;10.85;;;6.15;;
33593;SDS011;19920;52.242;20.940;2023-03-14T02:10:24;12.57;;;5.95;;
33593;SDS011;19920;52.242;20.940;2023-03-14T02:12:52;12.13;;;6.60;;
33593;SDS011;19920;52.242;20.940;2023-03-14T02:15:20;10.00;;;5.60;;
33593;SDS011;19920;52.242;20.940;2023-03-14T02:17:46;11.43;;;6.22;;
33593;SDS011;19920;52.242;20.940;2023-03-14T02:20:33;9.38;;;5.45;;
33593;SDS011;19920;52.242;20.940;2023-03-14T02:23:10;12.00;;;6.05;;
33593;SDS011;19920;52.242;20.940;2023-03-14T02:28:22;10.80;;;5.53;;
33593;SDS011;19920;52.242;20.940;2023-03-14T02:30:47;12.80;;;6.00;;
33593;SDS011;19920;52.242;20.940;2023-03-14T02:33:14;11.70;;;5.85;;
33593;SDS011;19920;52.242;20.940;2023-03-14T02:38:44;12.23;;;6.03;;
33593;SDS011;19920;52.242;20.940;2023-03-14T02:41:17;10.80;;;5.53;;
33593;SDS011;19920;52.242;20.940;2023-03-14T02:43:42;10.88;;;5.90;;
33593;SDS011;19920;52.242;20.940;2023-03-14T02:46:12;10.68;;;5.43;;
33593;SDS011;19920;52.242;20.940;2023-03-14T02:48:45;8.55;;;5.28;;
33593;SDS011;19920;52.242;20.940;2023-03-14T02:51:18;12.90;;;6.07;;
33593;SDS011;19920;52.242;20.940;2023-03-14T02:53:46;9.93;;;5.63;;
33593;SDS011;19920;52.242;20.940;2023-03-14T02:56:11;9.73;;;5.40;;
33593;SDS011;19920;52.242;20.940;2023-03-14T02:58:37;9.60;;;5.47;;
33593;SDS011;19920;52.242;20.940;2023-03-14T03:01:03;9.52;;;5.32;;
33593;SDS011;19920;52.242;20.940;2023-03-14T03:03:29;11.13;;;5.25;;
33593;SDS011;19920;52.242;20.940;2023-03-14T03:05:55;9.80;;;5.00;;
33593;SDS011;19920;52.242;20.940;2023-03-14T03:08:22;8.30;;;4.80;;
33593;SDS011;19920;52.242;20.940;2023-03-14T03:10:49;10.95;;;4.97;;
33593;SDS011;19920;52.242;20.940;2023-03-14T03:13:15;12.10;;;5.15;;
33593;SDS011;19920;52.242;20.940;2023-03-14T03:15:41;9.60;;;5.22;;
33593;SDS011;19920;52.242;20.940;2023-03-14T03:18:08;8.73;;;5.15;;
33593;SDS011;19920;52.242;20.940;2023-03-14T03:20:33;10.20;;;4.80;;
33593;SDS011;19920;52.242;20.940;2023-03-14T03:22:59;7.82;;;4.78;;
33593;SDS011;19920;52.242;20.940;2023-03-14T03:25:25;7.50;;;4.70;;
33593;SDS011;19920;52.242;20.940;2023-03-14T03:27:51;6.97;;;4.70;;
33593;SDS011;19920;52.242;20.940;2023-03-14T03:30:17;8.50;;;4.50;;
33593;SDS011;19920;52.242;20.940;2023-03-14T03:32:43;7.43;;;4.90;;
33593;SDS011;19920;52.242;20.940;2023-03-14T03:35:09;9.27;;;5.07;;
33593;SDS011;19920;52.242;20.940;2023-03-14T03:37:34;7.75;;;4.53;;
33593;SDS011;19920;52.242;20.940;2023-03-14T03:40:00;10.38;;;4.57;;
33593;SDS011;19920;52.242;20.940;2023-03-14T03:42:29;8.55;;;4.25;;
33593;SDS011;19920;52.242;20.940;2023-03-14T03:44:55;8.45;;;4.65;;
33593;SDS011;19920;52.242;20.940;2023-03-14T03:47:20;7.90;;;4.28;;
33593;SDS011;19920;52.242;20.940;2023-03-14T03:49:46;8.57;;;4.18;;
33593;SDS011;19920;52.242;20.940;2023-03-14T03:52:12;13.65;;;4.60;;
33593;SDS011;19920;52.242;20.940;2023-03-14T03:54:37;8.18;;;4.35;;
33593;SDS011;19920;52.242;20.940;2023-03-14T03:57:03;8.32;;;4.55;;
33593;SDS011;19920;52.242;20.940;2023-03-14T03:59:28;8.32;;;4.50;;
33593;SDS011;19920;52.242;20.940;2023-03-14T04:01:54;9.10;;;4.03;;
33593;SDS011;19920;52.242;20.940;2023-03-14T04:04:20;6.13;;;3.80;;
33593;SDS011;19920;52.242;20.940;2023-03-14T04:06:45;6.57;;;3.90;;
33593;SDS011;19920;52.242;20.940;2023-03-14T04:09:11;9.50;;;4.13;;
33593;SDS011;19920;52.242;20.940;2023-03-14T04:11:37;8.65;;;4.20;;
33593;SDS011;19920;52.242;20.940;2023-03-14T04:14:03;6.93;;;3.47;;
33593;SDS011;19920;52.242;20.940;2023-03-14T04:16:29;6.68;;;3.70;;
33593;SDS011;19920;52.242;20.940;2023-03-14T04:18:56;7.05;;;3.70;;
33593;SDS011;19920;52.242;20.940;2023-03-14T04:21:22;7.22;;;3.67;;
33593;SDS011;19920;52.242;20.940;2023-03-14T04:23:48;7.03;;;3.95;;
33593;SDS011;19920;52.242;20.940;2023-03-14T04:26:14;10.10;;;4.10;;
33593;SDS011;19920;52.242;20.940;2023-03-14T04:28:40;7.90;;;3.97;;
33593;SDS011;19920;52.242;20.940;2023-03-14T04:31:06;7.95;;;4.28;;
33593;SDS011;19920;52.242;20.940;2023-03-14T04:33:33;5.40;;;3.83;;
33593;SDS011;19920;52.242;20.940;2023-03-14T04:35:59;10.55;;;5.20;;
33593;SDS011;19920;52.242;20.940;2023-03-14T04:38:24;11.60;;;4.70;;
33593;SDS011;19920;52.242;20.940;2023-03-14T04:40:50;8.48;;;4.03;;
33593;SDS011;19920;52.242;20.940;2023-03-14T04:43:16;8.98;;;3.95;;
33593;SDS011;19920;52.242;20.940;2023-03-14T04:45:42;7.35;;;4.05;;
33593;SDS011;19920;52.242;20.940;2023-03-14T04:48:08;7.35;;;3.80;;
33593;SDS011;19920;52.242;20.940;2023-03-14T04:50:34;7.05;;;4.07;;
33593;SDS011;19920;52.242;20.940;2023-03-14T04:52:59;8.05;;;4.57;;
33593;SDS011;19920;52.242;20.940;2023-03-14T04:55:25;12.18;;;6.10;;
33593;SDS011;19920;52.242;20.940;2023-03-14T04:57:50;8.85;;;4.40;;
33593;SDS011;19920;52.242;20.940;2023-03-14T05:00:16;6.18;;;3.90;;
33593;SDS011;19920;52.242;20.940;2023-03-14T05:02:45;9.75;;;4.18;;
33593;SDS011;19920;52.242;20.940;2023-03-14T05:05:10;6.40;;;3.78;;
33593;SDS011;19920;52.242;20.940;2023-03-14T05:07:36;8.82;;;3.88;;
33593;SDS011;19920;52.242;20.940;2023-03-14T05:10:02;8.05;;;3.80;;
33593;SDS011;19920;52.242;20.940;2023-03-14T05:12:28;7.07;;;3.97;;
33593;SDS011;19920;52.242;20.940;2023-03-14T05:14:53;8.80;;;3.90;;
33593;SDS011;19920;52.242;20.940;2023-03-14T05:17:19;8.15;;;3.97;;
33593;SDS011;19920;52.242;20.940;2023-03-14T05:19:45;8.05;;;4.20;;
33593;SDS011;19920;52.242;20.940;2023-03-14T05:22:10;9.57;;;4.72;;
33593;SDS011;19920;52.242;20.940;2023-03-14T05:24:36;6.85;;;3.65;;
33593;SDS011;19920;52.242;20.940;2023-03-14T05:27:02;10.05;;;4.53;;
33593;SDS011;19920;52.242;20.940;2023-03-14T05:29:28;6.30;;;3.80;;
33593;SDS011;19920;52.242;20.940;2023-03-14T05:31:54;8.07;;;3.60;;
33593;SDS011;19920;52.242;20.940;2023-03-14T05:34:19;10.60;;;4.10;;
33593;SDS011;19920;52.242;20.940;2023-03-14T05:36:45;7.68;;;4.32;;
33593;SDS011;19920;52.242;20.940;2023-03-14T05:39:10;7.47;;;4.07;;
33593;SDS011;19920;52.242;20.940;2023-03-14T05:41:36;13.13;;;7.20;;
33593;SDS011;19920;52.242;20.940;2023-03-14T05:44:02;11.50;;;4.10;;
33593;SDS011;19920;52.242;20.940;2023-03-14T05:46:28;7.78;;;4.30;;
33593;SDS011;19920;52.242;20.940;2023-03-14T05:48:55;9.07;;;4.50;;
33593;SDS011;19920;52.242;20.940;2023-03-14T05:51:22;7.70;;;4.65;;
33593;SDS011;19920;52.242;20.940;2023-03-14T05:53:47;6.85;;;4.38;;
33593;SDS011;19920;52.242;20.940;2023-03-14T05:56:13;10.68;;;5.45;;
33593;SDS011;19920;52.242;20.940;2023-03-14T05:58:39;7.53;;;4.25;;
33593;SDS011;19920;52.242;20.940;2023-03-14T06:01:05;6.80;;;4.18;;
33593;SDS011;19920;52.242;20.940;2023-03-14T06:03:31;6.10;;;3.97;;
33593;SDS011;19920;52.242;20.940;2023-03-14T06:05:57;7.35;;;4.65;;
33593;SDS011;19920;52.242;20.940;2023-03-14T06:08:23;5.18;;;3.80;;
33593;SDS011;19920;52.242;20.940;2023-03-14T06:10:49;19.63;;;7.00;;
33593;SDS011;19920;52.242;20.940;2023-03-14T06:13:16;9.48;;;4.82;;
33593;SDS011;19920;52.242;20.940;2023-03-14T06:15:41;5.68;;;4.00;;
33593;SDS011;19920;52.242;20.940;2023-03-14T06:18:07;6.60;;;4.13;;
33593;SDS011;19920;52.242;20.940;2023-03-14T06:20:35;9.82;;;5.07;;
33593;SDS011;19920;52.242;20.940;2023-03-14T06:23:03;7.03;;;3.75;;
33593;SDS011;19920;52.242;20.940;2023-03-14T06:25:30;7.40;;;3.90;;
33593;SDS011;19920;52.242;20.940;2023-03-14T06:27:55;6.75;;;3.85;;
33593;SDS011;19920;52.242;20.940;2023-03-14T06:30:21;9.18;;;5.05;;
33593;SDS011;19920;52.242;20.940;2023-03-14T06:32:53;8.90;;;3.97;;
33593;SDS011;19920;52.242;20.940;2023-03-14T06:35:20;9.60;;;4.50;;
33593;SDS011;19920;52.242;20.940;2023-03-14T06:37:46;9.05;;;4.38;;
33593;SDS011;19920;52.242;20.940;2023-03-14T06:40:12;11.18;;;4.38;;
33593;SDS011;19920;52.242;20.940;2023-03-14T06:42:42;19.38;;;8.63;;
33593;SDS011;19920;52.242;20.940;2023-03-14T06:45:08;9.13;;;3.70;;
33593;SDS011;19920;52.242;20.940;2023-03-14T06:47:34;10.30;;;3.83;;
33593;SDS011;19920;52.242;20.940;2023-03-14T06:50:00;7.88;;;4.40;;
33593;SDS011;19920;52.242;20.940;2023-03-14T06:52:25;10.15;;;3.60;;
33593;SDS011;19920;52.242;20.940;2023-03-14T06:54:51;14.77;;;6.05;;
33593;SDS011;19920;52.242;20.940;2023-03-14T06:57:16;5.50;;;3.63;;
33593;SDS011;19920;52.242;20.940;2023-03-14T06:59:42;5.30;;;3.42;;
33593;SDS011;19920;52.242;20.940;2023-03-14T07:02:10;12.60;;;5.20;;
33593;SDS011;19920;52.242;20.940;2023-03-14T07:04:36;12.88;;;5.78;;
33593;SDS011;19920;52.242;20.940;2023-03-14T07:07:02;16.45;;;4.03;;
33593;SDS011;19920;52.242;20.940;2023-03-14T07:09:27;6.28;;;3.90;;
33593;SDS011;19920;52.242;20.940;2023-03-14T07:11:53;7.53;;;3.92;;
33593;SDS011;19920;52.242;20.940;2023-03-14T07:14:19;7.00;;;3.55;;
33593;SDS011;19920;52.242;20.940;2023-03-14T07:16:44;8.38;;;3.45;;
33593;SDS011;19920;52.242;20.940;2023-03-14T07:19:10;5.03;;;3.40;;
33593;SDS011;19920;52.242;20.940;2023-03-14T07:21:36;6.63;;;3.65;;
33593;SDS011;19920;52.242;20.940;2023-03-14T07:24:01;8.52;;;3.78;;
33593;SDS011;19920;52.242;20.940;2023-03-14T07:26:27;9.05;;;3.70;;
33593;SDS011;19920;52.242;20.940;2023-03-14T07:28:53;6.60;;;3.55;;
33593;SDS011;19920;52.242;20.940;2023-03-14T07:31:18;9.88;;;4.50;;
33593;SDS011;19920;52.242;20.940;2023-03-14T07:33:44;6.43;;;3.40;;
33593;SDS011;19920;52.242;20.940;2023-03-14T07:36:10;8.70;;;3.95;;
33593;SDS011;19920;52.242;20.940;2023-03-14T07:38:36;4.93;;;3.70;;
33593;SDS011;19920;52.242;20.940;2023-03-14T07:41:03;8.07;;;3.78;;
33593;SDS011;19920;52.242;20.940;2023-03-14T07:43:31;6.97;;;3.88;;
33593;SDS011;19920;52.242;20.940;2023-03-14T07:45:58;9.05;;;3.70;;
33593;SDS011;19920;52.242;20.940;2023-03-14T07:48:23;6.38;;;3.50;;
33593;SDS011;19920;52.242;20.940;2023-03-14T07:50:53;6.40;;;3.92;;
33593;SDS011;19920;52.242;20.940;2023-03-14T07:53:19;10.07;;;3.60;;
33593;SDS011;19920;52.242;20.940;2023-03-14T07:55:46;5.95;;;3.80;;
33593;SDS011;19920;52.242;20.940;2023-03-14T07:58:12;6.13;;;3.78;;
33593;SDS011;19920;52.242;20.940;2023-03-14T08:00:38;10.07;;;3.78;;
33593;SDS011;19920;52.242;20.940;2023-03-14T08:03:04;7.03;;;3.72;;
33593;SDS011;19920;52.242;20.940;2023-03-14T08:05:29;8.57;;;3.38;;
33593;SDS011;19920;52.242;20.940;2023-03-14T08:07:55;11.20;;;3.95;;
33593;SDS011;19920;52.242;20.940;2023-03-14T08:10:21;6.05;;;3.92;;
33593;SDS011;19920;52.242;20.940;2023-03-14T08:12:58;5.75;;;3.70;;
33593;SDS011;19920;52.242;20.940;2023-03-14T08:15:25;8.98;;;4.25;;
33593;SDS011;19920;52.242;20.940;2023-03-14T08:17:52;6.88;;;3.47;;
33593;SDS011;19920;52.242;20.940;2023-03-14T08:20:19;6.22;;;3.53;;
33593;SDS011;19920;52.242;20.940;2023-03-14T08:22:46;9.93;;;3.55;;
33593;SDS011;19920;52.242;20.940;2023-03-14T08:25:12;5.60;;;3.55;;
33593;SDS011;19920;52.242;20.940;2023-03-14T08:27:38;8.73;;;3.63;;
33593;SDS011;19920;52.242;20.940;2023-03-14T08:30:04;7.18;;;3.85;;
33593;SDS011;19920;52.242;20.940;2023-03-14T08:32:31;5.63;;;3.13;;
33593;SDS011;19920;52.242;20.940;2023-03-14T08:34:57;6.50;;;3.03;;
33593;SDS011;19920;52.242;20.940;2023-03-14T08:37:23;11.07;;;3.28;;
33593;SDS011;19920;52.242;20.940;2023-03-14T08:39:49;5.40;;;3.20;;
33593;SDS011;19920;52.242;20.940;2023-03-14T08:42:16;5.78;;;3.33;;
33593;SDS011;19920;52.242;20.940;2023-03-14T08:44:42;7.30;;;3.30;;
33593;SDS011;19920;52.242;20.940;2023-03-14T08:47:07;4.60;;;3.00;;
33593;SDS011;19920;52.242;20.940;2023-03-14T08:49:33;7.82;;;3.45;;
33593;SDS011;19920;52.242;20.940;2023-03-14T08:51:59;6.72;;;3.15;;
33593;SDS011;19920;52.242;20.940;2023-03-14T08:54:26;6.57;;;3.17;;
33593;SDS011;19920;52.242;20.940;2023-03-14T08:56:52;7.15;;;3.42;;
33593;SDS011;19920;52.242;20.940;2023-03-14T08:59:17;11.02;;;3.28;;
33593;SDS011;19920;52.242;20.940;2023-03-14T09:01:43;5.57;;;3.05;;
33593;SDS011;19920;52.242;20.940;2023-03-14T09:04:08;4.68;;;3.20;;
33593;SDS011;19920;52.242;20.940;2023-03-14T09:06:34;7.22;;;3.25;;
33593;SDS011;19920;52.242;20.940;2023-03-14T09:09:00;6.47;;;3.28;;
33593;SDS011;19920;52.242;20.940;2023-03-14T09:11:26;8.13;;;3.00;;
33593;SDS011;19920;52.242;20.940;2023-03-14T09:13:52;6.88;;;3.38;;
33593;SDS011;19920;52.242;20.940;2023-03-14T09:16:18;6.88;;;3.20;;
33593;SDS011;19920;52.242;20.940;2023-03-14T09:18:43;8.10;;;3.35;;
33593;SDS011;19920;52.242;20.940;2023-03-14T09:21:09;9.63;;;3.30;;
33593;SDS011;19920;52.242;20.940;2023-03-14T09:23:35;7.78;;;3.22;;
33593;SDS011;19920;52.242;20.940;2023-03-14T09:26:00;4.60;;;3.00;;
33593;SDS011;19920;52.242;20.940;2023-03-14T09:28:26;6.50;;;3.03;;
33593;SDS011;19920;52.242;20.940;2023-03-14T09:30:52;7.47;;;3.20;;
33593;SDS011;19920;52.242;20.940;2023-03-14T09:33:19;10.45;;;2.78;;
33593;SDS011;19920;52.242;20.940;2023-03-14T09:35:45;5.60;;;2.90;;
33593;SDS011;19920;52.242;20.940;2023-03-14T09:38:10;14.27;;;3.88;;
33593;SDS011;19920;52.242;20.940;2023-03-14T09:40:37;5.57;;;2.75;;
33593;SDS011;19920;52.242;20.940;2023-03-14T09:43:05;6.55;;;2.75;;
33593;SDS011;19920;52.242;20.940;2023-03-14T09:45:35;5.78;;;2.88;;
33593;SDS011;19920;52.242;20.940;2023-03-14T09:48:05;5.93;;;2.83;;
33593;SDS011;19920;52.242;20.940;2023-03-14T09:50:39;6.63;;;2.92;;
33593;SDS011;19920;52.242;20.940;2023-03-14T09:53:13;5.93;;;2.70;;
33593;SDS011;19920;52.242;20.940;2023-03-14T09:55:45;8.77;;;3.05;;
33593;SDS011;19920;52.242;20.940;2023-03-14T09:58:12;7.35;;;2.88;;
33593;SDS011;19920;52.242;20.940;2023-03-14T10:00:41;5.82;;;2.65;;
33593;SDS011;19920;52.242;20.940;2023-03-14T10:05:39;4.05;;;2.45;;
33593;SDS011;19920;52.242;20.940;2023-03-14T10:08:11;7.10;;;3.00;;
33593;SDS011;19920;52.242;20.940;2023-03-14T10:10:38;6.97;;;3.10;;
33593;SDS011;19920;52.242;20.940;2023-03-14T10:15:40;5.05;;;2.80;;
33593;SDS011;19920;52.242;20.940;2023-03-14T10:18:13;5.70;;;2.90;;
33593;SDS011;19920;52.242;20.940;2023-03-14T10:20:40;7.22;;;3.30;;
33593;SDS011;19920;52.242;20.940;2023-03-14T10:25:38;9.73;;;3.08;;
33593;SDS011;19920;52.242;20.940;2023-03-14T10:28:05;5.57;;;2.80;;
33593;SDS011;19920;52.242;20.940;2023-03-14T10:30:40;4.38;;;2.60;;
33593;SDS011;19920;52.242;20.940;2023-03-14T10:33:11;7.10;;;3.55;;
33593;SDS011;19920;52.242;20.940;2023-03-14T10:35:36;7.60;;;2.55;;
33593;SDS011;19920;52.242;20.940;2023-03-14T10:38:03;5.95;;;3.00;;
33593;SDS011;19920;52.242;20.940;2023-03-14T10:40:33;7.53;;;3.30;;
33593;SDS011;19920;52.242;20.940;2023-03-14T10:43:04;5.55;;;3.17;;
33593;SDS011;19920;52.242;20.940;2023-03-14T10:45:39;6.13;;;2.57;;
33593;SDS011;19920;52.242;20.940;2023-03-14T10:50:40;5.85;;;2.90;;
33593;SDS011;19920;52.242;20.940;2023-03-14T10:53:25;7.03;;;3.85;;
33593;SDS011;19920;52.242;20.940;2023-03-14T10:55:51;6.57;;;3.45;;
33593;SDS011;19920;52.242;20.940;2023-03-14T10:58:21;6.43;;;3.15;;
33593;SDS011;19920;52.242;20.940;2023-03-14T11:00:51;5.55;;;3.08;;
33593;SDS011;19920;52.242;20.940;2023-03-14T11:03:36;6.68;;;2.88;;
33593;SDS011;19920;52.242;20.940;2023-03-14T11:06:18;9.45;;;2.75;;
33593;SDS011;19920;52.242;20.940;2023-03-14T11:08:54;7.55;;;2.88;;
33593;SDS011;19920;52.242;20.940;2023-03-14T11:11:30;7.13;;;2.92;;
33593;SDS011;19920;52.242;20.940;2023-03-14T11:33:13;6.03;;;3.10;;
33593;SDS011;19920;52.242;20.940;2023-03-14T11:35:47;6.93;;;3.35;;
33593;SDS011;19920;52.242;20.940;2023-03-14T11:40:59;8.43;;;3.38;;
33593;SDS011;19920;52.242;20.940;2023-03-14T11:43:30;7.13;;;3.05;;
33593;SDS011;19920;52.242;20.940;2023-03-14T11:46:04;5.72;;;3.33;;
33593;SDS011;19920;52.242;20.940;2023-03-14T11:48:51;7.80;;;3.33;;
33593;SDS011;19920;52.242;20.940;2023-03-14T11:51:28;7.35;;;3.50;;
33593;SDS011;19920;52.242;20.940;2023-03-14T11:56:41;10.55;;;3.80;;
33593;SDS011;19920;52.242;20.940;2023-03-14T11:59:17;7.88;;;3.60;;
33593;SDS011;19920;52.242;20.940;2023-03-14T12:06:51;7.60;;;3.50;;
33593;SDS011;19920;52.242;20.940;2023-03-14T12:09:18;6.35;;;3.17;;
33593;SDS011;19920;52.242;20.940;2023-03-14T12:11:49;8.35;;;3.70;;
33593;SDS011;19920;52.242;20.940;2023-03-14T12:14:28;9.77;;;3.72;;
33593;SDS011;19920;52.242;20.940;2023-03-14T12:17:06;9.15;;;3.55;;
33593;SDS011;19920;52.242;20.940;2023-03-14T12:20:02;7.30;;;3.60;;
33593;SDS011;19920;52.242;20.940;2023-03-14T12:23:04;8.35;;;3.92;;
33593;SDS011;19920;52.242;20.940;2023-03-14T12:25:35;10.20;;;3.83;;
33593;SDS011;19920;52.242;20.940;2023-03-14T12:35:48;7.50;;;4.22;;
33593;SDS011;19920;52.242;20.940;2023-03-14T12:38:23;9.05;;;4.20;;
33593;SDS011;19920;52.242;20.940;2023-03-14T12:40:57;9.98;;;5.20;;
33593;SDS011;19920;52.242;20.940;2023-03-14T12:48:33;8.95;;;4.50;;
33593;SDS011;19920;52.242;20.940;2023-03-14T12:51:02;8.85;;;4.80;;
33593;SDS011;19920;52.242;20.940;2023-03-14T12:59:23;8.45;;;4.28;;
33593;SDS011;19920;52.242;20.940;2023-03-14T13:01:54;10.30;;;4.78;;
33593;SDS011;19920;52.242;20.940;2023-03-14T13:04:34;11.30;;;4.47;;
33593;SDS011;19920;52.242;20.940;2023-03-14T13:07:00;10.23;;;5.05;;
33593;SDS011;19920;52.242;20.940;2023-03-14T13:12:14;9.80;;;4.80;;
33593;SDS011;19920;52.242;20.940;2023-03-14T13:14:47;7.03;;;4.63;;
33593;SDS011;19920;52.242;20.940;2023-03-14T13:17:15;8.30;;;4.43;;
33593;SDS011;19920;52.242;20.940;2023-03-14T13:19:48;7.75;;;4.45;;
33593;SDS011;19920;52.242;20.940;2023-03-14T13:22:21;9.35;;;4.70;;
33593;SDS011;19920;52.242;20.940;2023-03-14T13:24:56;10.10;;;5.20;;
33593;SDS011;19920;52.242;20.940;2023-03-14T13:27:43;10.00;;;4.93;;
33593;SDS011;19920;52.242;20.940;2023-03-14T13:30:16;9.70;;;5.38;;
33593;SDS011;19920;52.242;20.940;2023-03-14T13:32:43;12.90;;;5.22;;
33593;SDS011;19920;52.242;20.940;2023-03-14T13:35:24;9.30;;;5.32;;
33593;SDS011;19920;52.242;20.940;2023-03-14T13:37:55;8.75;;;5.18;;
33593;SDS011;19920;52.242;20.940;2023-03-14T13:40:29;9.68;;;5.10;;
33593;SDS011;19920;52.242;20.940;2023-03-14T13:43:01;9.23;;;5.45;;
33593;SDS011;19920;52.242;20.940;2023-03-14T13:45:29;10.30;;;5.50;;
33593;SDS011;19920;52.242;20.940;2023-03-14T13:47:55;11.32;;;5.55;;
33593;SDS011;19920;52.242;20.940;2023-03-14T13:50:21;11.35;;;5.40;;
33593;SDS011;19920;52.242;20.940;2023-03-14T13:52:47;13.65;;;5.97;;
33593;SDS011;19920;52.242;20.940;2023-03-14T13:55:20;11.15;;;5.93;;
33593;SDS011;19920;52.242;20.940;2023-03-14T13:57:47;14.82;;;5.93;;
33593;SDS011;19920;52.242;20.940;2023-03-14T14:00:23;9.85;;;6.28;;
33593;SDS011;19920;52.242;20.940;2023-03-14T14:02:54;10.00;;;6.03;;
33593;SDS011;19920;52.242;20.940;2023-03-14T14:05:22;11.25;;;5.57;;
33593;SDS011;19920;52.242;20.940;2023-03-14T14:07:51;11.00;;;5.38;;
33593;SDS011;19920;52.242;20.940;2023-03-14T14:10:17;13.15;;;6.72;;
33593;SDS011;19920;52.242;20.940;2023-03-14T14:12:57;13.35;;;6.22;;
33593;SDS011;19920;52.242;20.940;2023-03-14T14:15:26;10.27;;;5.90;;
33593;SDS011;19920;52.242;20.940;2023-03-14T14:17:55;11.05;;;6.00;;
33593;SDS011;19920;52.242;20.940;2023-03-14T14:20:36;11.45;;;6.45;;
33593;SDS011;19920;52.242;20.940;2023-03-14T14:25:40;13.18;;;6.93;;
33593;SDS011;19920;52.242;20.940;2023-03-14T14:28:22;15.77;;;7.07;;
33593;SDS011;19920;52.242;20.940;2023-03-14T14:33:58;11.27;;;6.55;;
33593;SDS011;19920;52.242;20.940;2023-03-14T14:36:39;12.02;;;5.57;;
33593;SDS011;19920;52.242;20.940;2023-03-14T14:39:12;10.40;;;5.00;;
33593;SDS011;19920;52.242;20.940;2023-03-14T14:41:47;10.52;;;5.63;;
33593;SDS011;19920;52.242;20.940;2023-03-14T14:44:17;8.57;;;5.60;;
33593;SDS011;19920;52.242;20.940;2023-03-14T14:46:51;8.45;;;4.70;;
33593;SDS011;19920;52.242;20.940;2023-03-14T14:49:18;11.57;;;5.93;;
33593;SDS011;19920;52.242;20.940;2023-03-14T14:51:47;7.65;;;5.10;;
33593;SDS011;19920;52.242;20.940;2023-03-14T14:54:15;7.20;;;4.88;;
33593;SDS011;19920;52.242;20.940;2023-03-14T14:57:01;14.13;;;5.05;;
33593;SDS011;19920;52.242;20.940;2023-03-14T14:59:28;9.70;;;5.30;;
33593;SDS011;19920;52.242;20.940;2023-03-14T15:01:57;8.93;;;5.22;;
33593;SDS011;19920;52.242;20.940;2023-03-14T15:04:25;10.35;;;5.32;;
33593;SDS011;19920;52.242;20.940;2023-03-14T15:06:51;11.20;;;5.63;;
33593;SDS011;19920;52.242;20.940;2023-03-14T15:09:18;8.25;;;5.30;;
33593;SDS011;19920;52.242;20.940;2023-03-14T15:11:45;8.75;;;4.78;;
33593;SDS011;19920;52.242;20.940;2023-03-14T15:14:11;10.40;;;5.18;;
33593;SDS011;19920;52.242;20.940;2023-03-14T15:16:36;11.30;;;4.78;;
33593;SDS011;19920;52.242;20.940;2023-03-14T15:19:09;8.25;;;5.22;;
33593;SDS011;19920;52.242;20.940;2023-03-14T15:21:46;10.52;;;5.15;;
33593;SDS011;19920;52.242;20.940;2023-03-14T15:24:12;10.32;;;5.50;;
33593;SDS011;19920;52.242;20.940;2023-03-14T15:26:38;8.30;;;5.55;;
33593;SDS011;19920;52.242;20.940;2023-03-14T15:29:04;8.98;;;5.18;;
33593;SDS011;19920;52.242;20.940;2023-03-14T15:31:32;8.40;;;5.20;;
33593;SDS011;19920;52.242;20.940;2023-03-14T15:33:59;10.13;;;5.20;;
33593;SDS011;19920;52.242;20.940;2023-03-14T15:36:28;10.43;;;5.47;;
33593;SDS011;19920;52.242;20.940;2023-03-14T15:38:58;9.90;;;5.72;;
33593;SDS011;19920;52.242;20.940;2023-03-14T15:41:24;10.27;;;5.78;;
33593;SDS011;19920;52.242;20.940;2023-03-14T15:43:50;11.65;;;5.47;;
33593;SDS011;19920;52.242;20.940;2023-03-14T15:46:17;8.38;;;5.93;;
33593;SDS011;19920;52.242;20.940;2023-03-14T15:48:43;11.05;;;5.97;;
33593;SDS011;19920;52.242;20.940;2023-03-14T15:51:09;11.60;;;6.30;;